Impacts METAR Board
IDs:

KCLT - Charlotte/Douglas In, NC, US

Updated at: 2000 UTC 08 Feb 2023
Potential Impact None Slight Moderate High
Time 08/08Z 08/09Z 08/10Z 08/11Z 08/12Z 08/13Z 08/14Z 08/15Z 08/16Z 08/17Z 08/18Z 08/19Z 08/20Z
Temp 44 42 44 46 46 51 58 63 66 68 69 70
Dewpt 34 34 35 34 35 38 39 39 41 42 43 44
Altim 30.25 30.25 30.25 30.27 30.30 30.32 30.33 30.33 30.31 30.29 30.27 30.25
VIS 10 10 10 10 10 10 10 10 10 10 10 10
CIG 250 250 250 250 250 250 250 250 220 90 95 210
CoverBKNBKNBKNBKNBKNOVCOVCBKNOVCBKNBKNBKN
FltCatVFRVFRVFRVFRVFRVFRVFRVFRVFRVFRVFRVFR
WX------------------------
WDir180170180180000240240240250250
WSpd 3 4 4 3 0 0 0 5 6 5 6 5
WGst -- -- -- -- -- -- -- -- -- -- -- --
Raw hourly METARs

KCLT 080852Z 18003KT 10SM BKN250 07/01 A3025 RMK SLP242 T00670011 55003 $
KCLT 080952Z 17004KT 10SM BKN250 06/01 A3025 RMK SLP243 T00560011 $
KCLT 081052Z 18004KT 10SM BKN250 07/02 A3025 RMK SLP243 T00670017 $
KCLT 081152Z 18003KT 10SM BKN250 08/01 A3027 RMK SLP249 T00780011 10083 20044 53006 $
KCLT 081252Z 00000KT 10SM FEW070 SCT220 BKN250 08/02 A3030 RMK AO2 SLP259 T00780017
KCLT 081352Z 00000KT 10SM FEW070 SCT220 OVC250 11/03 A3032 RMK AO2 SLP266 T01060033
KCLT 081452Z 00000KT 10SM SCT060 SCT220 OVC250 14/04 A3033 RMK AO2 SLP267 T01440039 51019
KCLT 081552Z 24005KT 10SM FEW070 SCT220 BKN250 17/04 A3033 RMK AO2 SLP267 T01720039
KCLT 081652Z 24006KT 10SM SCT070 SCT090 BKN220 OVC250 19/05 A3031 RMK AO2 SLP262 T01890050
KCLT 081752Z 24005KT 10SM FEW070 BKN090 BKN250 20/06 A3029 RMK AO2 SLP254 T02000056 10200 20056 58013
KCLT 081852Z 25006KT 10SM SCT070 BKN095 BKN200 BKN250 21/06 A3027 RMK AO2 SLP246 T02060061
KCLT 081952Z 25005KT 10SM SCT070 SCT095 BKN210 BKN250 21/07 A3025 RMK AO2 SLP241 T02110067



Page loaded:  20:54 UTC  |   12:54 PM Pacific  |   01:54 PM Mountain  |   02:54 PM Central  |   03:54 PM Eastern

 

ADVISORIES

FORECASTS

FORECASTS

OBSERVATIONS

USER TOOLS

ABOUT US